Ruston, Washington
Current Conditions -  °F | °C
As of 11:53 AM on Thursday 23 Oct 2014 (Local Time) from KTIW Reporting Station
Broken Clouds Broken Clouds  
Wind Chill: 54°   Ceiling: 5500
Heat Index: 54°   Visibility: 10mi
Dew Point: 49°   Wind: 10mph
Humidity: 83%   Direction: 170°S
Pressure: 29.82"   Gusts: NA
Location:  47.2887°N, 122.51°W
Report Text: KTIW 231853Z 17009KT 10SM SCT043 BKN055 BKN070 12/09 A2982 RMK AO2 RAE19 SLP098 P0001 T01220094
Loading
Personal Weather Stations






























Interactive Weather Map
Tropical Storm Tracking
New forecast layout! Learn more

10-Day Weather Forecast

Advertisements
Track Severe Weather on mobile